Time;durP1;ratioP1;P1;durP2;ratioP2;P2;SDS_P1;SDS_P2;PMS_P1;PMS_P2;Temp;Humidity;BMP_temperature;BMP_pressure;BME280_temperature;BME280_humidity;BME280_pressure;Samples;Min_cycle;Max_cycle;Signal;HPM_P1;HPM_P2
2023/10/03 00:00:31;;;;;;;;;10.33;9.33;;;;;23.35;52.82;100874.53;4948969;28;46938;-70
2023/10/03 00:03:50;;;;;;;;;8.33;7.67;;;;;23.34;53.62;100868.28;4956925;28;45359;-70
2023/10/03 00:06:15;;;;;;;;;7.67;7.67;;;;;23.32;53.62;100870.41;4942046;28;45226;-70
2023/10/03 00:08:44;;;;;;;;;14.00;9.33;;;;;23.04;53.59;100829.38;4949924;28;45408;-71
2023/10/03 00:11:18;;;;;;;;;9.00;8.00;;;;;23.27;53.84;100867.53;4947626;28;46469;-71
2023/10/03 00:13:43;;;;;;;;;10.00;10.00;;;;;23.23;54.02;100869.03;4956375;28;45505;-69
2023/10/03 00:16:09;;;;;;;;;8.33;6.00;;;;;22.90;53.85;100811.56;4945732;28;45474;-70
2023/10/03 00:18:34;;;;;;;;;8.33;7.33;;;;;23.24;54.28;100861.72;4958148;28;45497;-72
2023/10/03 00:21:00;;;;;;;;;6.67;6.33;;;;;23.16;54.88;100854.69;4941312;28;46327;-70
2023/10/03 00:23:26;;;;;;;;;8.67;8.67;;;;;23.23;54.40;100866.31;4947373;28;45264;-70
2023/10/03 00:25:54;;;;;;;;;10.67;9.67;;;;;22.65;54.40;100777.16;4951610;28;45605;-70
2023/10/03 00:28:20;;;;;;;;;8.00;7.33;;;;;23.09;54.69;100853.94;4947059;28;45450;-71
2023/10/03 00:30:46;;;;;;;;;11.00;9.00;;;;;23.14;54.79;100862.22;4949318;28;45804;-69
2023/10/03 00:33:12;;;;;;;;;9.00;9.00;;;;;23.20;55.25;100865.91;4955600;28;45801;-70
2023/10/03 00:35:40;;;;;;;;;7.33;7.33;;;;;23.18;55.28;100868.84;4949140;28;45544;-74
2023/10/03 00:38:15;;;;;;;;;9.75;8.75;;;;;23.17;55.35;100872.63;4943902;28;45452;-70
2023/10/03 00:40:40;;;;;;;;;9.67;9.67;;;;;23.12;55.66;100875.19;4951655;28;45736;-73
2023/10/03 00:43:07;;;;;;;;;0.33;0.33;;;;;22.90;55.16;100844.94;4941469;28;45478;-71
2023/10/03 00:45:33;;;;;;;;;10.33;8.00;;;;;23.03;55.46;100876.53;4948597;28;45414;-70
2023/10/03 00:48:01;;;;;;;;;10.33;8.33;;;;;23.16;55.43;100897.25;4948176;28;45185;-70
2023/10/03 00:50:28;;;;;;;;;9.00;8.00;;;;;23.14;55.59;100900.19;4948066;28;46424;-70
2023/10/03 00:52:58;;;;;;;;;10.00;8.00;;;;;23.08;55.75;100895.69;4947961;28;45449;-70
2023/10/03 00:55:28;;;;;;;;;9.00;9.00;;;;;23.12;55.71;100906.91;4947543;28;45317;-70
2023/10/03 00:58:07;;;;;;;;;10.67;8.67;;;;;23.09;55.92;100913.59;4949182;28;45366;-71
2023/10/03 01:00:41;;;;;;;;;8.00;8.00;;;;;23.06;56.10;100897.78;4951286;28;45734;-70
2023/10/03 01:03:36;;;;;;;;;8.33;7.67;;;;;23.03;55.66;100912.63;4949566;28;45282;-72
2023/10/03 01:06:13;;;;;;;;;11.00;9.00;;;;;23.04;56.19;100910.75;4951369;28;46644;-70
2023/10/03 01:08:41;;;;;;;;;10.00;9.00;;;;;23.00;56.90;100914.91;4952305;28;45283;-71
2023/10/03 01:11:20;;;;;;;;;6.25;6.25;;;;;22.99;56.47;100902.41;4948346;28;47445;-70
2023/10/03 01:13:48;;;;;;;;;9.00;6.67;;;;;22.88;56.73;100901.28;4939396;28;45359;-71
2023/10/03 01:16:20;;;;;;;;;14.00;10.67;;;;;22.65;57.24;100863.91;4950500;28;45388;-70
2023/10/03 01:18:47;;;;;;;;;9.33;9.00;;;;;22.97;57.28;100909.94;4952318;28;45596;-70
2023/10/03 01:21:13;;;;;;;;;10.33;9.00;;;;;22.88;56.88;100905.88;4950392;28;45649;-71
2023/10/03 01:23:40;;;;;;;;;7.00;7.00;;;;;22.94;57.21;100907.69;4945341;28;45253;-70
2023/10/03 01:26:07;;;;;;;;;10.33;8.33;;;;;22.98;57.04;100936.00;4942377;28;45510;-70
2023/10/03 01:28:34;;;;;;;;;14.00;11.00;;;;;22.99;57.38;100933.06;4951142;28;45343;-70
2023/10/03 01:31:00;;;;;;;;;11.33;9.33;;;;;22.95;57.27;100941.88;4942634;28;46746;-71
2023/10/03 01:33:30;;;;;;;;;11.67;11.67;;;;;22.78;58.40;100906.31;4947623;28;45517;-70
2023/10/03 01:35:56;;;;;;;;;10.00;10.00;;;;;22.91;58.75;100925.22;4948017;28;45519;-72
2023/10/03 01:38:28;;;;;;;;;14.33;11.67;;;;;22.95;58.41;100926.44;4943506;28;45637;-71
2023/10/03 01:40:58;;;;;;;;;14.00;13.00;;;;;22.89;59.53;100930.03;4951065;28;46269;-71
2023/10/03 01:43:24;;;;;;;;;12.33;12.33;;;;;22.77;59.22;100905.47;4947543;28;45475;-72
2023/10/03 01:45:50;;;;;;;;;11.67;10.67;;;;;22.87;59.96;100931.31;4947428;28;45538;-71
2023/10/03 01:48:17;;;;;;;;;9.67;9.67;;;;;22.91;60.56;100940.66;4949435;28;45431;-70
2023/10/03 01:50:42;;;;;;;;;14.33;12.33;;;;;22.90;60.50;100942.53;4946136;28;45818;-71
2023/10/03 01:53:08;;;;;;;;;11.67;10.67;;;;;22.81;60.88;100926.72;4947094;28;45302;-70
2023/10/03 01:55:34;;;;;;;;;13.33;13.33;;;;;22.90;60.71;100944.41;4940492;28;45757;-71
2023/10/03 01:57:59;;;;;;;;;12.33;11.00;;;;;22.84;60.83;100937.19;4947868;28;45579;-70
2023/10/03 02:00:25;;;;;;;;;16.00;13.67;;;;;22.53;61.65;100878.34;4949739;28;46310;-71
2023/10/03 02:02:56;;;;;;;;;13.00;11.67;;;;;22.85;61.52;100939.66;4945062;28;45203;-70
2023/10/03 02:05:24;;;;;;;;;11.00;10.33;;;;;22.58;61.44;100889.34;4939358;28;45390;-71
2023/10/03 02:07:59;;;;;;;;;16.33;13.67;;;;;22.85;62.32;100936.13;4939929;28;45832;-71
2023/10/03 02:10:26;;;;;;;;;16.00;13.33;;;;;22.61;61.99;100903.28;4955868;28;46755;-71
2023/10/03 02:12:51;;;;;;;;;16.67;13.00;;;;;22.83;62.43;100940.94;4927875;28;45628;-71
2023/10/03 02:15:21;;;;;;;;;14.33;14.33;;;;;22.81;62.30;100953.81;4950035;28;45384;-70
2023/10/03 02:17:50;;;;;;;;;15.67;15.00;;;;;22.80;62.79;100946.75;4950195;28;45377;-70
2023/10/03 02:20:20;;;;;;;;;16.67;15.67;;;;;22.76;63.02;100941.75;4942098;28;46042;-72
2023/10/03 02:22:53;;;;;;;;;15.67;15.67;;;;;22.72;63.13;100927.00;4950273;28;45301;-72
2023/10/03 02:25:20;;;;;;;;;19.33;17.00;;;;;22.73;63.11;100939.50;4949913;28;45493;-71
2023/10/03 02:27:47;;;;;;;;;15.33;14.33;;;;;22.66;63.28;100930.59;4941245;28;45522;-71
2023/10/03 02:30:13;;;;;;;;;17.00;15.33;;;;;22.70;63.36;100950.78;4950046;28;45846;-71
2023/10/03 02:32:41;;;;;;;;;15.33;15.00;;;;;22.68;63.60;100944.75;4954941;28;45351;-71
2023/10/03 02:35:07;;;;;;;;;15.00;14.67;;;;;22.67;63.29;100937.69;4929806;28;45367;-71
2023/10/03 02:37:33;;;;;;;;;17.33;15.00;;;;;22.56;63.78;100930.22;4941139;28;45333;-72
2023/10/03 02:40:00;;;;;;;;;15.33;15.00;;;;;22.67;63.34;100944.97;4952031;28;46525;-71
2023/10/03 02:42:26;;;;;;;;;14.00;12.00;;;;;22.67;63.43;100939.56;4946297;28;45367;-71
2023/10/03 02:44:51;;;;;;;;;14.67;13.67;;;;;22.61;63.26;100916.00;4929509;28;45408;-71
2023/10/03 02:47:16;;;;;;;;;15.00;14.00;;;;;22.67;63.03;100926.84;4939589;28;45405;-71
2023/10/03 02:49:43;;;;;;;;;15.00;14.00;;;;;22.66;63.31;100933.31;4947026;28;45275;-72
2023/10/03 02:52:10;;;;;;;;;13.00;12.33;;;;;22.57;63.01;100931.88;4945804;28;45395;-69
2023/10/03 02:54:35;;;;;;;;;16.33;14.67;;;;;22.62;63.51;100961.88;4947433;28;45536;-70
2023/10/03 02:57:00;;;;;;;;;18.00;13.67;;;;;22.63;63.09;100960.84;4944119;28;45498;-71
2023/10/03 02:59:26;;;;;;;;;16.00;15.00;;;;;22.61;63.01;100960.22;4948551;28;67518;-70
2023/10/03 03:01:52;;;;;;;;;16.00;13.00;;;;;22.33;62.94;100919.13;4940622;28;45372;-70
2023/10/03 03:04:21;;;;;;;;;13.33;13.33;;;;;22.62;63.10;100956.44;4943124;28;45613;-70
2023/10/03 03:06:46;;;;;;;;;12.67;9.67;;;;;22.63;62.95;100951.88;4954679;28;45528;-71
2023/10/03 03:09:17;;;;;;;;;13.67;13.00;;;;;22.60;62.92;100958.53;4944789;28;47524;-70
2023/10/03 03:11:49;;;;;;;;;10.67;10.67;;;;;22.42;62.77;100923.22;4946812;28;45245;-71
2023/10/03 03:14:15;;;;;;;;;14.33;13.00;;;;;22.55;62.60;100958.38;4946486;28;45614;-71
2023/10/03 03:16:40;;;;;;;;;11.33;10.67;;;;;22.60;62.73;100963.97;4947810;28;45495;-71
2023/10/03 03:19:06;;;;;;;;;15.67;10.67;;;;;22.61;62.86;100962.91;4952884;28;46453;-72
2023/10/03 03:21:33;;;;;;;;;11.00;11.00;;;;;22.54;62.52;100956.72;4946590;28;45483;-71
2023/10/03 03:24:08;;;;;;;;;15.33;14.33;;;;;22.52;62.46;100956.09;4954234;28;45482;-70
2023/10/03 03:26:37;;;;;;;;;14.00;11.33;;;;;22.49;62.56;100953.84;4953484;28;45564;-73
2023/10/03 03:29:19;;;;;;;;;19.00;17.33;;;;;22.49;62.51;100967.38;4954197;28;47176;-71
2023/10/03 03:31:44;;;;;;;;;10.00;10.00;;;;;22.44;62.76;100956.38;4946057;28;45308;-70
2023/10/03 03:34:11;;;;;;;;;8.00;8.00;;;;;22.29;62.33;100959.34;4941285;28;45385;-71
2023/10/03 03:36:38;;;;;;;;;11.33;9.67;;;;;22.43;62.50;100981.81;4943796;28;45473;-70
2023/10/03 03:39:13;;;;;;;;;12.67;10.00;;;;;22.36;62.42;100962.84;4945552;28;46683;-72
2023/10/03 03:41:39;;;;;;;;;8.67;7.33;;;;;22.39;62.81;100967.00;4943445;28;45497;-72
2023/10/03 03:44:11;;;;;;;;;9.00;8.67;;;;;22.46;62.61;100970.53;4932024;28;45508;-72
2023/10/03 03:46:37;;;;;;;;;9.00;8.00;;;;;22.47;62.09;100964.06;4945689;28;45522;-71
2023/10/03 03:49:04;;;;;;;;;9.33;8.67;;;;;22.32;61.94;100945.38;4946048;28;46411;-71
2023/10/03 03:51:30;;;;;;;;;8.00;8.00;;;;;22.46;61.88;100984.06;4935953;28;45233;-70
2023/10/03 03:53:55;;;;;;;;;9.00;9.00;;;;;22.48;61.63;100984.69;4942330;28;45181;-70
2023/10/03 03:56:21;;;;;;;;;10.00;10.00;;;;;22.35;61.72;100966.59;4949379;28;45328;-73
2023/10/03 03:58:48;;;;;;;;;8.00;8.00;;;;;22.34;61.88;100989.34;4941190;28;45853;-71
2023/10/03 04:01:15;;;;;;;;;10.33;10.00;;;;;22.42;61.75;101020.75;4949252;28;45495;-71
2023/10/03 04:03:42;;;;;;;;;9.33;9.33;;;;;22.33;62.04;100994.97;4939776;28;45497;-70
2023/10/03 04:06:09;;;;;;;;;10.33;7.33;;;;;22.28;62.10;101002.91;4943059;28;45395;-70
2023/10/03 04:08:35;;;;;;;;;10.00;9.33;;;;;22.28;62.40;101011.03;4947723;28;47408;-71
2023/10/03 04:11:01;;;;;;;;;8.67;8.67;;;;;22.00;61.88;100952.56;4941126;28;45478;-70
2023/10/03 04:13:26;;;;;;;;;9.67;9.67;;;;;22.33;62.25;101012.03;4942767;28;45434;-70
2023/10/03 04:15:53;;;;;;;;;9.00;9.00;;;;;21.49;62.40;100858.66;4945668;28;45498;-70
2023/10/03 04:18:19;;;;;;;;;9.00;9.00;;;;;22.07;62.56;100964.25;4937874;28;47020;-71
2023/10/03 04:20:46;;;;;;;;;8.00;8.00;;;;;21.91;62.70;100956.56;4938531;28;45291;-71
2023/10/03 04:23:12;;;;;;;;;10.33;9.33;;;;;22.22;62.62;101014.56;4927715;28;45418;-70
2023/10/03 04:25:39;;;;;;;;;8.00;7.33;;;;;22.21;62.66;101024.59;4945737;28;45387;-69
2023/10/03 04:28:05;;;;;;;;;10.33;10.33;;;;;22.26;62.61;101032.09;4922700;28;46628;-71
2023/10/03 04:30:31;;;;;;;;;8.67;8.67;;;;;22.21;62.46;101024.59;4946251;28;45449;-71
2023/10/03 04:32:57;;;;;;;;;11.33;10.00;;;;;22.33;62.92;101044.56;4961220;28;45393;-71
2023/10/03 04:35:23;;;;;;;;;9.00;9.00;;;;;22.32;62.66;101047.47;4961088;28;45557;-71
2023/10/03 04:37:56;;;;;;;;;11.00;8.33;;;;;22.34;62.41;101039.97;4960526;28;45559;-71
2023/10/03 04:40:33;;;;;;;;;12.33;10.00;;;;;22.15;63.01;101012.72;4960517;28;45516;-70
2023/10/03 04:42:59;;;;;;;;;8.67;8.00;;;;;22.22;62.95;101022.69;4958591;28;45287;-71
2023/10/03 04:45:25;;;;;;;;;8.67;8.67;;;;;22.26;62.95;101045.63;4948519;28;45537;-71
2023/10/03 04:47:52;;;;;;;;;8.67;7.67;;;;;22.23;62.77;101051.47;4940788;28;46341;-73
2023/10/03 04:50:19;;;;;;;;;7.67;7.67;;;;;22.19;63.12;101039.38;4949962;28;45357;-71
2023/10/03 04:52:50;;;;;;;;;9.00;9.00;;;;;22.17;63.02;101048.56;4951107;28;45505;-71
2023/10/03 04:55:17;;;;;;;;;7.75;7.75;;;;;22.20;63.09;101065.41;4943495;28;45434;-71
2023/10/03 04:57:47;;;;;;;;;9.75;8.75;;;;;22.17;63.25;101063.97;4954115;28;46940;-70
2023/10/03 05:00:15;;;;;;;;;10.67;9.00;;;;;22.15;63.60;101058.78;4948059;28;45386;-71
2023/10/03 05:02:43;;;;;;;;;7.33;7.33;;;;;22.08;63.65;101039.00;4943975;28;45354;-71
2023/10/03 05:05:10;;;;;;;;;10.33;9.00;;;;;22.19;63.66;101069.19;4951390;28;45624;-71
2023/10/03 05:07:35;;;;;;;;;7.33;7.33;;;;;22.19;63.80;101069.19;4948084;28;45565;-72
2023/10/03 05:10:01;;;;;;;;;7.50;7.25;;;;;22.13;63.56;101055.44;4948230;28;45433;-71
2023/10/03 05:12:27;;;;;;;;;11.00;8.33;;;;;22.22;63.49;101057.91;4947770;28;45201;-70
2023/10/03 05:14:52;;;;;;;;;10.00;9.00;;;;;21.93;63.58;101022.13;4941592;28;45284;-71
2023/10/03 05:17:17;;;;;;;;;7.00;7.00;;;;;22.15;63.53;101075.03;4939906;28;46421;-71
2023/10/03 05:19:43;;;;;;;;;8.00;8.00;;;;;22.11;63.47;101062.94;4947201;28;58102;-70
2023/10/03 05:22:08;;;;;;;;;9.50;8.25;;;;;22.13;63.77;101069.00;4947450;28;45814;-71
2023/10/03 05:24:35;;;;;;;;;8.25;7.25;;;;;22.09;63.61;101075.88;4926289;28;45782;-72
2023/10/03 05:27:00;;;;;;;;;13.00;8.67;;;;;22.12;63.12;101082.75;4955188;28;46446;-71
2023/10/03 05:29:28;;;;;;;;;8.33;6.00;;;;;22.14;63.35;101077.94;4949713;28;45284;-71
2023/10/03 05:31:54;;;;;;;;;10.33;8.67;;;;;22.12;63.49;101086.28;4941823;28;45432;-71
2023/10/03 05:34:23;;;;;;;;;7.33;7.33;;;;;22.14;63.94;101099.59;4953847;28;45328;-71
2023/10/03 05:36:49;;;;;;;;;11.00;7.33;;;;;22.06;63.68;101087.13;4946937;28;45683;-73
2023/10/03 05:39:15;;;;;;;;;8.00;5.33;;;;;22.06;64.05;101097.13;4953631;28;45572;-70
2023/10/03 05:41:42;;;;;;;;;5.67;5.67;;;;;21.66;64.24;101050.31;4950529;28;45463;-71
2023/10/03 05:44:12;;;;;;;;;8.00;6.33;;;;;21.97;64.25;101104.59;4939288;28;45556;-71
2023/10/03 05:46:42;;;;;;;;;8.67;7.33;;;;;21.93;64.55;101097.09;4951007;28;47640;-71
2023/10/03 05:49:09;;;;;;;;;7.67;6.00;;;;;21.75;64.87;101081.50;4949236;28;45553;-71
2023/10/03 05:51:34;;;;;;;;;7.67;7.00;;;;;21.89;65.07;101112.94;4946431;28;45315;-72
2023/10/03 05:54:00;;;;;;;;;9.67;8.33;;;;;21.94;64.64;101105.03;4929478;28;45185;-72
2023/10/03 05:56:26;;;;;;;;;7.75;6.25;;;;;21.65;64.50;101051.34;4953358;28;46652;-72
2023/10/03 05:58:51;;;;;;;;;7.33;7.33;;;;;21.83;65.19;101101.09;4951871;28;45496;-73
2023/10/03 06:01:17;;;;;;;;;7.67;6.33;;;;;21.85;65.39;101138.78;4946783;28;45245;-72
2023/10/03 06:03:42;;;;;;;;;6.67;6.67;;;;;21.89;65.43;101140.00;4938138;28;45680;-69
2023/10/03 06:06:08;;;;;;;;;5.67;5.67;;;;;21.87;65.66;101125.84;4940065;28;46383;-70
2023/10/03 06:08:33;;;;;;;;;6.00;6.00;;;;;21.80;66.00;101096.06;4946255;28;45354;-72
2023/10/03 06:11:00;;;;;;;;;7.25;5.25;;;;;21.88;66.49;101110.44;4952196;28;45337;-71
2023/10/03 06:13:25;;;;;;;;;7.00;7.00;;;;;21.84;66.53;101093.81;4938360;28;45365;-71
2023/10/03 06:15:52;;;;;;;;;10.67;10.67;;;;;21.90;66.20;101111.06;4946497;28;45605;-70
2023/10/03 06:18:18;;;;;;;;;6.67;6.00;;;;;21.72;66.13;101085.47;4939971;28;45661;-71
2023/10/03 06:20:43;;;;;;;;;6.67;6.67;;;;;21.90;66.53;101119.19;4939569;28;45518;-71
2023/10/03 06:23:08;;;;;;;;;8.00;6.00;;;;;21.88;66.32;101114.00;4942833;28;45540;-71
2023/10/03 06:25:35;;;;;;;;;7.00;7.00;;;;;21.78;66.44;101121.69;4947126;28;45723;-71
2023/10/03 06:28:02;;;;;;;;;11.33;8.00;;;;;21.66;66.88;101118.78;4949838;28;45656;-73
2023/10/03 06:30:30;;;;;;;;;9.67;8.33;;;;;21.27;67.24;101054.66;4941373;28;45320;-72
2023/10/03 06:32:57;;;;;;;;;8.33;7.00;;;;;21.60;67.36;101116.06;4943919;28;45403;-71
2023/10/03 06:35:22;;;;;;;;;9.33;8.00;;;;;21.33;67.46;101075.47;4941502;28;45600;-74
2023/10/03 06:37:48;;;;;;;;;8.67;6.33;;;;;21.40;68.20;101100.63;4940878;28;45505;-70
2023/10/03 06:40:16;;;;;;;;;7.67;7.67;;;;;21.38;68.19;101110.81;4948479;28;47090;-72
2023/10/03 06:42:41;;;;;;;;;8.25;7.50;;;;;21.39;68.02;101111.66;4947843;28;45727;-71
2023/10/03 06:45:13;;;;;;;;;8.00;8.00;;;;;21.26;68.43;101085.44;4951698;28;45589;-71
2023/10/03 06:47:39;;;;;;;;;8.00;8.00;;;;;21.37;68.06;101105.63;4947511;28;45519;-72
2023/10/03 06:50:06;;;;;;;;;9.67;9.00;;;;;21.46;68.23;101118.75;4926211;28;45385;-71
2023/10/03 06:52:32;;;;;;;;;9.33;8.33;;;;;21.44;68.58;101104.63;4951361;28;45538;-70
2023/10/03 06:54:58;;;;;;;;;7.67;7.67;;;;;21.38;68.38;101110.81;4954481;28;46376;-70
2023/10/03 06:57:23;;;;;;;;;7.00;7.00;;;;;21.48;68.94;101134.78;4955161;28;45299;-72
2023/10/03 06:59:49;;;;;;;;;10.25;8.50;;;;;21.37;68.73;101125.38;4949756;28;47240;-70
2023/10/03 07:02:14;;;;;;;;;9.00;8.33;;;;;21.55;68.46;101144.56;4939202;28;46279;-69
2023/10/03 07:04:40;;;;;;;;;11.33;11.33;;;;;21.51;68.63;101140.63;4938277;28;46732;-69
2023/10/03 07:07:05;;;;;;;;;9.00;9.00;;;;;21.52;68.87;101163.09;4948789;28;45525;-69
2023/10/03 07:09:32;;;;;;;;;8.00;7.33;;;;;21.42;69.05;101163.47;4949319;28;46654;-74
2023/10/03 07:11:58;;;;;;;;;11.33;8.33;;;;;21.38;69.45;101189.28;4941635;28;45487;-69
2023/10/03 07:14:23;;;;;;;;;13.00;10.50;;;;;21.28;69.15;101188.84;4943791;28;46708;-69
2023/10/03 07:16:49;;;;;;;;;8.00;7.00;;;;;21.31;69.14;101190.28;4944301;28;45775;-69
2023/10/03 07:19:15;;;;;;;;;8.33;7.33;;;;;21.36;69.32;101204.88;4944266;28;55408;-70
2023/10/03 07:21:41;;;;;;;;;10.33;10.33;;;;;21.37;69.82;101205.69;4942834;28;45388;-69
2023/10/03 07:24:07;;;;;;;;;19.00;17.33;;;;;21.16;69.93;101179.59;4951261;28;46894;-70
2023/10/03 07:26:32;;;;;;;;;14.33;12.67;;;;;21.24;70.22;101198.41;4942803;28;45369;-78
2023/10/03 07:29:00;;;;;;;;;9.33;8.33;;;;;21.29;70.73;101204.03;4947231;28;45428;-69
2023/10/03 07:31:26;;;;;;;;;9.00;8.33;;;;;21.26;70.96;101199.03;4943565;28;45433;-74
2023/10/03 07:33:52;;;;;;;;;6.00;6.00;;;;;21.21;71.29;101210.41;4949901;28;46937;-71
2023/10/03 07:36:17;;;;;;;;;9.67;8.67;;;;;21.29;70.80;101205.91;4956140;28;45488;-69
2023/10/03 07:38:45;;;;;;;;;8.67;8.00;;;;;21.39;70.81;101214.44;4936295;28;45537;-70
2023/10/03 07:41:13;;;;;;;;;10.33;8.67;;;;;21.32;70.60;101202.78;4939670;28;45460;-74
2023/10/03 07:43:41;;;;;;;;;7.50;7.50;;;;;21.36;70.69;101204.88;4922755;28;48544;-72
2023/10/03 07:46:06;;;;;;;;;8.33;8.33;;;;;21.37;70.71;101194.88;4941020;28;45999;-71
2023/10/03 07:48:31;;;;;;;;;11.33;8.33;;;;;21.45;70.67;101213.66;4954654;28;45313;-70
2023/10/03 07:50:57;;;;;;;;;7.00;7.00;;;;;21.39;70.48;101209.03;4940402;28;45581;-69
2023/10/03 07:53:22;;;;;;;;;6.67;6.67;;;;;21.25;70.51;101181.13;4959670;28;45455;-70
2023/10/03 07:55:48;;;;;;;;;10.00;10.00;;;;;21.16;70.38;101161.50;4940605;28;45440;-69
2023/10/03 07:58:14;;;;;;;;;7.00;6.33;;;;;21.32;70.10;101202.78;4948049;28;45394;-72
2023/10/03 08:00:42;;;;;;;;;8.00;8.00;;;;;21.24;70.36;101204.63;4946368;28;45525;-72
2023/10/03 08:03:11;;;;;;;;;6.00;4.67;;;;;21.20;69.88;101191.66;4964239;28;46374;-70
2023/10/03 08:05:40;;;;;;;;;8.00;8.00;;;;;21.50;70.31;101249.88;4949663;28;45556;-69
2023/10/03 08:08:05;;;;;;;;;7.33;6.00;;;;;21.37;70.23;101225.47;4943412;28;45810;-70
2023/10/03 08:10:32;;;;;;;;;7.67;7.67;;;;;21.52;70.21;101255.91;4931307;28;45356;-72
2023/10/03 08:12:59;;;;;;;;;7.67;7.67;;;;;21.21;69.90;101206.84;4952287;28;45619;-70
2023/10/03 08:15:31;;;;;;;;;7.33;6.33;;;;;21.49;69.82;101269.00;4941940;28;45713;-70
2023/10/03 08:17:57;;;;;;;;;6.67;5.67;;;;;21.54;70.50;101271.94;4948147;28;45284;-70
2023/10/03 08:20:23;;;;;;;;;6.00;6.00;;;;;21.55;70.68;101279.00;4943107;28;45514;-70
2023/10/03 08:22:52;;;;;;;;;8.00;8.00;;;;;21.47;69.98;101263.81;4955792;28;45725;-70
2023/10/03 08:25:22;;;;;;;;;7.00;7.00;;;;;21.23;69.93;101226.44;4944137;28;45508;-69
2023/10/03 08:27:49;;;;;;;;;7.50;6.50;;;;;21.40;70.07;101308.09;4958057;28;45287;-74
2023/10/03 08:30:27;;;;;;;;;6.25;6.25;;;;;21.44;68.83;101337.25;4954090;28;45424;-75
2023/10/03 08:32:54;;;;;;;;;6.00;5.00;;;;;21.46;67.27;101359.53;4950631;28;46868;-69
2023/10/03 08:35:21;;;;;;;;;5.33;5.33;;;;;21.40;66.07;101359.47;4949103;28;45567;-72
2023/10/03 08:37:46;;;;;;;;;5.00;3.00;;;;;21.38;66.14;101362.38;4927901;28;45493;-69
2023/10/03 08:40:19;;;;;;;;;3.00;3.00;;;;;21.39;65.11;101372.16;4945855;28;45491;-69
2023/10/03 08:42:52;;;;;;;;;4.00;4.00;;;;;21.11;64.26;101322.69;4957827;28;46789;-69
2023/10/03 08:45:22;;;;;;;;;2.00;2.00;;;;;21.37;63.40;101378.81;4937231;28;45454;-69
2023/10/03 08:47:51;;;;;;;;;2.25;2.25;;;;;21.37;63.82;101373.41;4955781;28;45556;-69
2023/10/03 08:50:34;;;;;;;;;5.50;4.00;;;;;21.30;64.09;101362.56;4951032;28;45482;-70
2023/10/03 08:53:12;;;;;;;;;3.00;2.75;;;;;21.46;64.95;101405.53;4946967;28;46737;-70
2023/10/03 08:55:44;;;;;;;;;14.33;11.33;;;;;21.20;64.56;101359.34;4950910;28;45633;-72
2023/10/03 08:58:14;;;;;;;;;5.00;5.00;;;;;21.49;65.48;101407.81;4941100;28;45493;-69
2023/10/03 09:00:43;;;;;;;;;4.50;3.25;;;;;21.47;65.33;101398.25;4948023;28;45497;-72
2023/10/03 09:03:12;;;;;;;;;3.25;3.25;;;;;21.48;65.36;101399.91;4946235;28;46012;-74
2023/10/03 09:05:40;;;;;;;;;4.50;4.50;;;;;21.59;65.17;101417.44;4955674;28;45440;-72
2023/10/03 09:08:16;;;;;;;;;4.75;4.75;;;;;21.60;64.17;101427.22;4936215;28;46092;-74
2023/10/03 09:10:52;;;;;;;;;4.75;4.75;;;;;21.60;64.24;101436.19;4948911;28;45470;-72
2023/10/03 09:13:28;;;;;;;;;4.50;4.50;;;;;21.67;64.25;101428.13;4950749;28;47021;-70
2023/10/03 09:16:07;;;;;;;;;2.25;1.50;;;;;21.65;63.66;101432.91;4946071;28;45395;-70
2023/10/03 09:18:42;;;;;;;;;5.25;5.25;;;;;21.66;63.86;101445.38;4953512;28;45521;-69
2023/10/03 09:21:14;;;;;;;;;4.50;3.50;;;;;21.71;63.77;101446.44;4939297;28;45392;-75
2023/10/03 09:23:59;;;;;;;;;8.67;8.67;;;;;21.50;63.40;101416.78;4946921;28;47059;-70
2023/10/03 09:26:25;;;;;;;;;4.00;3.25;;;;;21.72;62.27;101452.69;4949827;28;45621;-70
2023/10/03 09:28:51;;;;;;;;;5.50;4.00;;;;;21.86;62.20;101463.41;4948086;28;45357;-72
2023/10/03 09:31:22;;;;;;;;;5.75;3.00;;;;;22.04;62.08;101454.78;4949806;28;45387;-74
2023/10/03 09:33:47;;;;;;;;;3.00;2.00;;;;;22.10;59.53;101451.25;4945489;28;46483;-73
2023/10/03 09:36:14;;;;;;;;;7.00;4.00;;;;;22.50;60.28;101485.75;4953082;28;45664;-71
2023/10/03 09:38:44;;;;;;;;;3.25;2.00;;;;;22.64;58.83;101495.59;4957221;28;45365;-70
2023/10/03 09:41:17;;;;;;;;;2.00;1.00;;;;;22.70;57.69;101494.78;4944758;28;45706;-75
2023/10/03 09:43:49;;;;;;;;;2.00;2.00;;;;;22.82;56.85;101509.41;4956954;28;45788;-68
2023/10/03 09:46:23;;;;;;;;;4.00;2.00;;;;;22.93;56.83;101508.81;4950310;28;45437;-70
2023/10/03 09:48:53;;;;;;;;;4.75;2.00;;;;;22.78;56.61;101481.84;4932278;28;45310;-69
2023/10/03 09:51:21;;;;;;;;;5.00;3.00;;;;;22.88;56.72;101494.22;4954393;28;45633;-69
2023/10/03 09:53:46;;;;;;;;;4.00;3.00;;;;;22.95;56.52;101535.72;4954564;28;48326;-69
2023/10/03 09:56:12;;;;;;;;;2.00;2.00;;;;;22.95;54.81;101531.13;4944936;28;45304;-70
2023/10/03 09:58:39;;;;;;;;;3.50;3.00;;;;;22.93;54.83;101540.50;4942439;28;45493;-70
2023/10/03 10:01:06;;;;;;;;;4.00;2.75;;;;;22.95;54.95;101538.44;4953120;28;45264;-69
2023/10/03 10:03:37;;;;;;;;;2.50;2.50;;;;;22.99;55.08;101542.41;4947065;28;46588;-70
2023/10/03 10:06:12;;;;;;;;;5.25;4.00;;;;;23.05;55.12;101547.00;4946288;28;45476;-69
2023/10/03 10:08:47;;;;;;;;;1.25;1.25;;;;;22.58;54.35;101486.38;4952242;28;45428;-69
2023/10/03 10:11:13;;;;;;;;;2.00;2.00;;;;;23.01;54.52;101556.56;4948740;28;45638;-70
2023/10/03 10:13:59;;;;;;;;;1.75;1.75;;;;;23.03;55.19;101554.53;4956795;28;46876;-69
2023/10/03 10:16:28;;;;;;;;;7.00;3.25;;;;;22.87;54.55;101522.38;4955090;28;45453;-73
2023/10/03 10:18:54;;;;;;;;;3.50;1.75;;;;;23.03;53.65;101571.63;4953249;28;46193;-71
2023/10/03 10:21:19;;;;;;;;;4.00;3.25;;;;;23.00;53.04;101569.31;4946960;28;45493;-70
2023/10/03 10:24:25;;;;;;;;;4.25;4.25;;;;;23.05;53.04;101576.84;4949120;28;46804;-71
2023/10/03 10:26:52;;;;;;;;;3.25;3.25;;;;;23.10;53.04;101582.47;4925065;28;45214;-73
2023/10/03 10:29:24;;;;;;;;;3.50;3.50;;;;;23.06;52.23;101586.66;4923188;28;46120;-73
2023/10/03 10:31:59;;;;;;;;;3.75;3.75;;;;;23.12;52.33;101591.25;4937732;28;45546;-71
2023/10/03 10:34:27;;;;;;;;;6.00;3.25;;;;;23.21;51.94;101589.16;4942584;28;47362;-71
2023/10/03 10:37:02;;;;;;;;;4.50;3.75;;;;;23.18;51.83;101601.25;4970123;28;45526;-70
2023/10/03 10:40:17;;;;;;;;;2.75;2.50;;;;;23.20;51.66;101610.03;4957302;28;45277;-70
2023/10/03 10:43:05;;;;;;;;;6.00;5.25;;;;;23.23;52.32;101617.78;4948067;28;45353;-69
2023/10/03 10:45:42;;;;;;;;;7.50;6.25;;;;;23.31;52.13;101605.88;4954555;28;46872;-71
2023/10/03 10:48:08;;;;;;;;;4.50;4.50;;;;;23.33;51.12;101606.50;4950996;28;45633;-71
2023/10/03 10:51:04;;;;;;;;;6.50;5.50;;;;;23.48;50.70;101631.59;4947824;28;45473;-71
2023/10/03 10:53:38;;;;;;;;;3.75;3.75;;;;;23.46;49.53;101627.41;4942312;28;45607;-71
2023/10/03 10:56:08;;;;;;;;;6.00;4.75;;;;;23.53;49.67;101639.09;4952833;28;45765;-71
2023/10/03 10:58:51;;;;;;;;;4.00;3.00;;;;;23.41;48.74;101632.59;4948567;28;45506;-71
2023/10/03 11:01:21;;;;;;;;;3.00;3.00;;;;;23.50;48.61;101648.50;4953149;28;45622;-71
2023/10/03 11:03:47;;;;;;;;;4.50;4.50;;;;;23.49;49.32;101646.81;4945661;28;45295;-70
2023/10/03 11:06:14;;;;;;;;;3.50;3.50;;;;;23.49;49.26;101665.00;4961694;28;46576;-70
2023/10/03 11:08:45;;;;;;;;;8.25;5.25;;;;;23.36;48.53;101653.06;4950152;28;45279;-70
2023/10/03 11:11:10;;;;;;;;;2.00;2.00;;;;;23.36;48.96;101663.91;4959369;28;45549;-69
2023/10/03 11:13:45;;;;;;;;;6.25;4.75;;;;;23.32;49.10;101662.66;4946367;28;45318;-70
2023/10/03 11:16:10;;;;;;;;;5.75;5.75;;;;;23.08;49.14;101617.13;4945376;28;47487;-71
2023/10/03 11:18:36;;;;;;;;;4.50;3.75;;;;;23.26;49.28;101657.22;4947256;28;45450;-69
2023/10/03 11:21:05;;;;;;;;;6.00;5.00;;;;;23.34;49.08;101676.84;4955463;28;45570;-71
2023/10/03 11:23:30;;;;;;;;;7.25;6.00;;;;;23.25;49.07;101659.09;4953709;28;45964;-70
2023/10/03 11:25:57;;;;;;;;;5.25;5.25;;;;;23.35;48.74;101680.41;4956806;28;45382;-72
2023/10/03 11:28:24;;;;;;;;;5.25;5.25;;;;;23.35;48.00;101673.09;4944418;28;45475;-70